Time;durP1;ratioP1;P1;durP2;ratioP2;P2;SDS_P1;SDS_P2;PMS_P1;PMS_P2;Temp;Humidity;BMP_temperature;BMP_pressure;BME280_temperature;BME280_humidity;BME280_pressure;Samples;Min_cycle;Max_cycle;Signal;HPM_P1;HPM_P2
2022/05/17 00:00:13;;;;;;;11.05;5.68;;;;;;;19.81;65.00;100204.69;5072717;28;20071;-81
2022/05/17 00:02:41;;;;;;;13.30;5.50;;;;;;;19.81;64.75;100202.00;5072670;28;20048;-77
2022/05/17 00:05:10;;;;;;;11.13;5.85;;;;;;;19.70;65.35;100203.06;5071367;28;20049;-78
2022/05/17 00:07:38;;;;;;;10.05;5.47;;;;;;;19.52;66.10;100204.00;5072429;28;20048;-78
2022/05/17 00:10:07;;;;;;;7.97;5.13;;;;;;;19.55;65.95;100200.97;5071005;28;20053;-79
2022/05/17 00:12:36;;;;;;;10.77;5.28;;;;;;;19.71;65.38;100191.22;5071650;28;20135;-78
2022/05/17 00:15:07;;;;;;;9.98;5.60;;;;;;;19.37;67.15;100199.06;5071084;28;20056;-78
2022/05/17 00:17:36;;;;;;;11.23;6.13;;;;;;;19.42;66.78;100188.66;5071423;28;20049;-78
2022/05/17 00:20:06;;;;;;;10.63;6.47;;;;;;;19.37;67.31;100193.66;5072779;28;20044;-83
2022/05/17 00:22:35;;;;;;;11.43;6.68;;;;;;;19.37;67.54;100182.84;5076075;28;20037;-80
2022/05/17 00:25:04;;;;;;;13.35;7.45;;;;;;;19.34;67.26;100169.63;5075664;28;20124;-77
2022/05/17 00:27:32;;;;;;;13.38;7.50;;;;;;;19.31;67.80;100171.78;5074551;28;20044;-80
2022/05/17 00:30:01;;;;;;;12.13;7.57;;;;;;;19.16;68.90;100168.72;5074333;28;20048;-80
2022/05/17 00:32:32;;;;;;;13.18;7.03;;;;;;;19.24;68.34;100168.81;5074337;28;20446;-80
2022/05/17 00:35:00;;;;;;;10.52;6.80;;;;;;;19.29;68.00;100158.41;5075347;28;20068;-86
2022/05/17 00:37:30;;;;;;;14.30;7.65;;;;;;;19.21;68.78;100161.03;5075771;28;20131;-77
2022/05/17 00:39:58;;;;;;;13.27;7.03;;;;;;;19.05;69.60;100156.25;5075344;28;20079;-77
2022/05/17 00:42:27;;;;;;;13.35;7.57;;;;;;;19.16;69.18;100156.03;5075339;28;20095;-77
2022/05/17 00:44:55;;;;;;;13.68;8.23;;;;;;;19.04;69.80;100161.81;5075404;28;20040;-79
2022/05/17 00:47:26;;;;;;;15.60;8.43;;;;;;;18.96;70.63;100159.84;5074261;28;20482;-78
2022/05/17 00:50:02;;;;;;;12.90;8.60;;;;;;;18.98;70.77;100165.09;5075382;28;20136;-83
2022/05/17 00:52:34;;;;;;;15.70;8.70;;;;;;;18.81;71.36;100159.44;5075693;28;20045;-82
2022/05/17 00:55:08;;;;;;;16.00;8.73;;;;;;;18.85;71.56;100160.03;5074022;28;20142;-86
2022/05/17 00:57:45;;;;;;;16.40;8.70;;;;;;;18.83;71.84;100162.03;5074973;28;20135;-89
2022/05/17 01:00:17;;;;;;;18.60;9.00;;;;;;;18.92;71.57;100161.16;5074343;28;20544;-86
2022/05/17 01:02:51;;;;;;;13.35;8.48;;;;;;;19.07;70.99;100156.09;5075493;28;20075;-84
2022/05/17 01:05:24;;;;;;;11.27;8.48;;;;;;;19.25;69.55;100151.59;5075242;28;20115;-83
2022/05/17 01:07:54;;;;;;;14.38;8.50;;;;;;;19.11;70.62;100144.00;5074784;28;20056;-77
2022/05/17 01:10:25;;;;;;;12.85;8.07;;;;;;;19.08;71.10;100141.56;5075448;28;20041;-77
2022/05/17 01:15:40;;;;;;;12.57;7.90;;;;;;;19.20;70.07;100151.19;5044417;28;20524;-81
2022/05/17 01:18:08;;;;;;;11.73;7.90;;;;;;;19.21;70.62;100147.50;5074801;28;20052;-79
2022/05/17 01:20:41;;;;;;;14.23;8.38;;;;;;;19.00;71.78;100139.59;5075118;28;20119;-77
2022/05/17 01:23:11;;;;;;;14.68;8.20;;;;;;;18.88;72.27;100146.22;5074964;28;20115;-79
2022/05/17 01:25:40;;;;;;;14.05;8.50;;;;;;;18.83;73.05;100145.81;5074505;28;20055;-80
2022/05/17 01:28:14;;;;;;;13.20;7.95;;;;;;;18.86;72.95;100146.38;5073430;28;20251;-79
2022/05/17 01:30:42;;;;;;;14.35;8.13;;;;;;;19.15;71.34;100151.66;5074522;28;20401;-77
2022/05/17 01:33:14;;;;;;;11.68;7.68;;;;;;;19.09;71.81;100145.97;5074095;28;20084;-78
2022/05/17 01:35:43;;;;;;;12.82;7.82;;;;;;;18.93;72.78;100145.78;5074764;28;20047;-78
2022/05/17 01:38:13;;;;;;;13.18;7.53;;;;;;;18.77;73.35;100143.69;5074284;28;20135;-78
2022/05/17 01:40:42;;;;;;;12.43;8.02;;;;;;;18.74;73.50;100147.56;5073392;28;20106;-77
2022/05/17 01:43:11;;;;;;;13.73;8.57;;;;;;;18.73;73.44;100139.59;5074282;28;20154;-78
2022/05/17 01:45:39;;;;;;;14.35;8.32;;;;;;;18.76;73.10;100145.56;5074385;28;20374;-78
2022/05/17 01:48:07;;;;;;;13.07;8.15;;;;;;;18.82;72.97;100147.69;5074284;28;20048;-78
2022/05/17 01:50:36;;;;;;;12.95;8.25;;;;;;;18.73;73.26;100145.84;5073129;28;20139;-78
2022/05/17 01:53:05;;;;;;;11.18;7.50;;;;;;;18.86;72.57;100154.47;5073810;28;20037;-78
2022/05/17 01:55:35;;;;;;;14.90;8.27;;;;;;;18.90;72.24;100146.06;5074319;28;20044;-78
2022/05/17 01:58:03;;;;;;;12.80;7.95;;;;;;;18.86;71.96;100140.97;5072706;28;20056;-78
2022/05/17 02:00:35;;;;;;;15.13;7.90;;;;;;;18.90;72.15;100143.34;5074030;28;20470;-78
2022/05/17 02:03:03;;;;;;;12.50;8.25;;;;;;;19.02;71.49;100139.50;5073883;28;20048;-81
2022/05/17 02:05:32;;;;;;;10.90;8.07;;;;;;;19.03;71.43;100136.63;5074061;28;20051;-80
2022/05/17 02:08:00;;;;;;;14.23;8.48;;;;;;;18.99;71.56;100134.34;5073811;28;20036;-80
2022/05/17 02:10:28;;;;;;;14.07;8.07;;;;;;;19.05;71.55;100134.63;5074031;28;20128;-80
2022/05/17 02:12:59;;;;;;;15.15;8.27;;;;;;;19.03;71.87;100136.63;5073742;28;20465;-77
2022/05/17 02:15:28;;;;;;;14.70;8.40;;;;;;;18.85;72.52;100130.31;5073911;28;20045;-77
2022/05/17 02:17:56;;;;;;;16.00;8.52;;;;;;;18.77;73.22;100131.03;5072409;28;20060;-77
2022/05/17 02:20:25;;;;;;;13.60;7.95;;;;;;;18.87;72.84;100131.84;5073884;28;20047;-78
2022/05/17 02:22:53;;;;;;;11.18;7.97;;;;;;;18.92;72.83;100120.63;5073549;28;20044;-79
2022/05/17 02:25:21;;;;;;;16.35;8.70;;;;;;;19.01;71.91;100129.66;5072649;28;20555;-84
2022/05/17 02:27:50;;;;;;;14.25;7.65;;;;;;;19.06;71.57;100138.19;5072931;28;20404;-84
2022/05/17 02:30:20;;;;;;;13.05;7.53;;;;;;;18.94;72.26;100125.88;5073475;28;20409;-86
2022/05/17 02:32:49;;;;;;;12.43;7.28;;;;;;;19.05;71.61;100125.66;5074843;28;20037;-86
2022/05/17 02:35:17;;;;;;;14.10;7.20;;;;;;;19.17;70.94;100121.75;5074269;28;20135;-86
2022/05/17 02:37:45;;;;;;;15.43;7.53;;;;;;;19.20;70.64;100131.41;5073942;28;20405;-79
2022/05/17 02:40:14;;;;;;;13.30;7.05;;;;;;;19.11;70.85;100128.63;5073231;28;20075;-77
2022/05/17 02:42:42;;;;;;;11.52;6.85;;;;;;;18.89;71.73;100123.59;5073117;28;20051;-78
2022/05/17 02:45:11;;;;;;;14.40;6.75;;;;;;;18.93;70.96;100107.94;5073199;28;20049;-79
2022/05/17 02:47:40;;;;;;;10.18;6.05;;;;;;;18.86;71.30;100108.53;5073089;28;20478;-79
2022/05/17 02:50:10;;;;;;;10.05;6.38;;;;;;;18.78;71.67;100112.97;5072833;28;20060;-78
2022/05/17 02:52:39;;;;;;;11.57;6.68;;;;;;;19.10;70.33;100117.94;5073442;28;20044;-80
2022/05/17 02:55:08;;;;;;;11.63;5.97;;;;;;;19.03;70.25;100122.25;5073122;28;20045;-78
2022/05/17 02:57:37;;;;;;;12.82;6.35;;;;;;;18.90;71.39;100124.44;5073062;28;20460;-79
2022/05/17 03:00:09;;;;;;;11.02;6.05;;;;;;;18.92;71.33;100117.06;5072890;28;20135;-79
2022/05/17 03:02:37;;;;;;;11.35;5.70;;;;;;;19.07;69.92;100127.22;5073456;28;20036;-79
2022/05/17 03:05:09;;;;;;;10.30;5.95;;;;;;;19.11;69.47;100128.63;5071709;28;20052;-79
2022/05/17 03:07:38;;;;;;;10.70;6.00;;;;;;;19.05;69.67;100133.78;5073312;28;20090;-80
2022/05/17 03:10:07;;;;;;;12.88;5.90;;;;;;;19.01;70.06;100126.94;5072816;28;20048;-80
2022/05/17 03:12:36;;;;;;;11.35;5.80;;;;;;;19.01;70.28;100130.53;5071872;28;20047;-81
2022/05/17 03:15:05;;;;;;;9.98;5.70;;;;;;;19.10;69.56;100131.47;5072893;28;20143;-80
2022/05/17 03:17:33;;;;;;;12.32;6.35;;;;;;;19.18;69.32;100128.84;5073035;28;20554;-78
2022/05/17 03:20:04;;;;;;;10.23;5.70;;;;;;;19.07;69.90;100134.47;5072692;28;20370;-79
2022/05/17 03:22:34;;;;;;;10.27;6.10;;;;;;;18.97;70.45;100125.56;5071751;28;20056;-78
2022/05/17 03:25:03;;;;;;;9.27;5.45;;;;;;;19.16;69.86;100133.56;5071295;28;20044;-80
2022/05/17 03:27:51;;;;;;;10.05;5.80;;;;;;;19.15;69.68;100134.56;5072879;28;20470;-80
2022/05/17 03:30:20;;;;;;;12.38;5.72;;;;;;;19.08;70.44;100138.88;5072709;28;20041;-81
2022/05/17 03:32:48;;;;;;;9.38;5.72;;;;;;;19.04;70.10;100132.91;5073025;28;20045;-80
2022/05/17 03:35:16;;;;;;;9.27;5.68;;;;;;;19.10;70.04;100147.69;5072698;28;20036;-79
2022/05/17 03:37:46;;;;;;;12.23;5.40;;;;;;;19.01;70.47;100144.03;5072061;28;20056;-79
2022/05/17 03:40:14;;;;;;;8.65;5.35;;;;;;;19.08;70.01;100139.72;5071564;28;20118;-79
2022/05/17 03:42:43;;;;;;;11.60;5.53;;;;;;;19.08;69.91;100144.28;5072947;28;20041;-78
2022/05/17 03:45:12;;;;;;;12.38;5.63;;;;;;;19.00;70.36;100136.91;5072619;28;20398;-78
2022/05/17 03:47:40;;;;;;;9.05;5.65;;;;;;;18.97;69.38;100145.31;5072415;28;20132;-79
2022/05/17 03:50:12;;;;;;;9.48;5.63;;;;;;;19.11;68.70;100144.00;5072526;28;20432;-79
2022/05/17 03:52:40;;;;;;;7.65;5.25;;;;;;;19.10;68.51;100153.09;5072810;28;20041;-79
2022/05/17 03:55:10;;;;;;;8.57;5.82;;;;;;;19.02;68.95;100155.72;5073334;28;20404;-79
2022/05/17 03:57:38;;;;;;;9.07;5.30;;;;;;;19.12;68.52;100157.38;5075367;28;20052;-79
2022/05/17 04:00:08;;;;;;;9.98;5.45;;;;;;;19.07;69.00;100162.34;5074794;28;20581;-81
2022/05/17 04:02:37;;;;;;;9.65;5.70;;;;;;;19.05;71.61;100155.41;5076480;28;20044;-79
2022/05/17 04:05:09;;;;;;;10.15;5.55;;;;;;;19.06;70.59;100152.53;5074829;28;20048;-79
2022/05/17 04:07:38;;;;;;;7.95;5.45;;;;;;;19.17;69.93;100155.03;5075227;28;20091;-80
2022/05/17 04:10:08;;;;;;;8.90;5.40;;;;;;;19.37;67.90;100153.09;5074512;28;20055;-83
2022/05/17 04:12:38;;;;;;;9.27;5.47;;;;;;;19.45;67.13;100147.78;5076060;28;20044;-83
2022/05/17 04:15:10;;;;;;;10.80;5.82;;;;;;;19.51;67.11;100150.91;5075986;28;20037;-83
2022/05/17 04:17:39;;;;;;;11.43;5.50;;;;;;;19.39;67.06;100147.53;5075179;28;20056;-82
2022/05/17 04:20:15;;;;;;;12.82;6.35;;;;;;;19.46;66.99;100148.63;5076114;28;20094;-82
2022/05/17 04:22:44;;;;;;;9.48;5.22;;;;;;;19.39;67.37;100159.19;5075932;28;20064;-83
2022/05/17 04:25:13;;;;;;;9.93;5.57;;;;;;;19.42;67.36;100153.50;5075571;28;20068;-82
2022/05/17 04:27:46;;;;;;;10.15;5.57;;;;;;;19.52;67.36;100158.84;5074769;28;20052;-82
2022/05/17 04:30:15;;;;;;;10.70;5.40;;;;;;;19.52;66.84;100149.88;5074461;28;20052;-82
2022/05/17 04:32:43;;;;;;;11.20;5.53;;;;;;;19.94;65.35;100147.47;5074590;28;20055;-80
2022/05/17 04:35:12;;;;;;;9.63;5.50;;;;;;;20.33;63.61;100147.13;5075581;28;20489;-78
2022/05/17 04:37:41;;;;;;;8.70;5.82;;;;;;;20.35;63.17;100150.50;5074581;28;20063;-75
2022/05/17 04:40:13;;;;;;;9.77;4.88;;;;;;;19.84;65.63;100152.97;5074132;28;20049;-75
2022/05/17 04:42:43;;;;;;;10.27;5.50;;;;;;;19.94;64.51;100142.06;5074675;28;20051;-75
2022/05/17 04:45:14;;;;;;;10.60;5.55;;;;;;;19.71;66.05;100155.19;5075447;28;20379;-75
2022/05/17 04:47:44;;;;;;;8.23;5.40;;;;;;;19.62;65.66;100156.13;5074285;28;20071;-75
2022/05/17 04:50:14;;;;;;;9.48;5.53;;;;;;;19.59;65.81;100159.09;5073651;28;20132;-84
2022/05/17 04:52:42;;;;;;;9.00;5.50;;;;;;;19.58;65.95;100152.00;5075584;28;20473;-76
2022/05/17 04:55:14;;;;;;;11.10;5.43;;;;;;;19.59;65.98;100157.28;5073254;28;20045;-77
2022/05/17 04:57:42;;;;;;;10.80;5.72;;;;;;;19.70;65.01;100151.66;5074202;28;20084;-80
2022/05/17 05:00:15;;;;;;;10.20;5.70;;;;;;;19.69;65.44;100159.91;5075103;28;20109;-80
2022/05/17 05:02:44;;;;;;;10.90;5.17;;;;;;;19.54;66.30;100153.28;5075393;28;20051;-77
2022/05/17 05:05:13;;;;;;;9.65;5.47;;;;;;;19.36;67.05;100153.25;5073633;28;20080;-77
2022/05/17 05:07:41;;;;;;;12.30;6.00;;;;;;;19.22;67.17;100148.34;5074162;28;20054;-77
2022/05/17 05:10:10;;;;;;;10.77;5.32;;;;;;;19.08;68.01;100144.28;5073571;28;20044;-77
2022/05/17 05:12:39;;;;;;;9.57;5.80;;;;;;;19.12;68.19;100145.69;5074537;28;20048;-77
2022/05/17 05:15:10;;;;;;;9.05;5.85;;;;;;;19.00;68.83;100136.91;5074850;28;20044;-76
2022/05/17 05:17:40;;;;;;;9.85;5.95;;;;;;;19.02;69.06;100134.94;5075052;28;20098;-77
2022/05/17 05:20:12;;;;;;;12.73;6.38;;;;;;;19.09;69.07;100135.16;5074811;28;20064;-74
2022/05/17 05:22:40;;;;;;;13.20;6.43;;;;;;;19.12;68.93;100134.88;5075053;28;20431;-78
2022/05/17 05:25:12;;;;;;;13.30;6.32;;;;;;;19.09;69.18;100140.56;5074772;28;20064;-79
2022/05/17 05:27:41;;;;;;;10.35;6.35;;;;;;;19.31;68.72;100144.75;5074796;28;20047;-79
2022/05/17 05:30:14;;;;;;;12.55;6.57;;;;;;;19.62;67.52;100156.97;5073298;28;20048;-79
2022/05/17 05:32:43;;;;;;;13.20;5.93;;;;;;;19.65;67.11;100158.50;5073693;28;20048;-80
2022/05/17 05:35:12;;;;;;;11.95;6.43;;;;;;;19.88;66.50;100159.78;5073080;28;20057;-79
2022/05/17 05:37:41;;;;;;;11.77;6.00;;;;;;;20.19;65.11;100162.09;5074389;28;20066;-79
2022/05/17 05:40:12;;;;;;;16.85;6.47;;;;;;;20.33;64.38;100157.97;5074279;28;20049;-80
2022/05/17 05:42:41;;;;;;;9.65;5.57;;;;;;;20.24;63.04;100162.44;5073070;28;20504;-78
2022/05/17 05:45:11;;;;;;;11.15;6.00;;;;;;;20.35;63.50;100167.63;5073845;28;20102;-79
2022/05/17 05:47:47;;;;;;;12.35;6.55;;;;;;;20.53;62.87;100165.75;5073130;28;20056;-77
2022/05/17 05:50:15;;;;;;;11.52;6.10;;;;;;;20.36;63.83;100163.06;5067552;28;20052;-78
2022/05/17 05:52:44;;;;;;;14.52;5.78;;;;;;;20.40;63.01;100159.88;5061501;28;20049;-79
2022/05/17 05:55:19;;;;;;;10.63;5.80;;;;;;;20.35;62.83;100162.19;5069103;28;20132;-77
2022/05/17 05:57:48;;;;;;;13.75;6.28;;;;;;;20.40;62.95;100165.31;5069463;28;20049;-77
2022/05/17 06:00:18;;;;;;;12.52;5.80;;;;;;;20.46;63.56;100167.44;5052104;28;20053;-77
2022/05/17 06:02:48;;;;;;;8.80;5.03;;;;;;;20.57;61.61;100156.31;5054076;28;20045;-77
2022/05/17 06:05:16;;;;;;;11.45;6.05;;;;;;;20.51;62.13;100158.81;5053709;28;20056;-76
2022/05/17 06:07:45;;;;;;;14.60;6.00;;;;;;;20.48;63.05;100151.00;5052269;28;20045;-77
2022/05/17 06:10:15;;;;;;;11.65;6.30;;;;;;;20.56;62.28;100154.63;5053419;28;20041;-77
2022/05/17 06:12:44;;;;;;;10.32;6.18;;;;;;;20.57;61.19;100156.31;5052653;28;20057;-80
2022/05/17 06:15:14;;;;;;;13.05;6.30;;;;;;;20.50;62.12;100159.81;5053547;28;20095;-80
2022/05/17 06:17:50;;;;;;;10.85;5.68;;;;;;;20.85;61.46;100148.03;5051636;28;20135;-82
2022/05/17 06:20:19;;;;;;;8.63;5.13;;;;;;;21.17;59.37;100157.34;5052147;28;20045;-77
2022/05/17 06:22:47;;;;;;;10.98;5.60;;;;;;;21.97;57.40;100161.31;5052526;28;20478;-77
2022/05/17 06:25:17;;;;;;;10.48;5.80;;;;;;;22.54;55.71;100153.22;5053345;28;20151;-76
2022/05/17 06:27:46;;;;;;;11.20;5.30;;;;;;;22.81;54.34;100160.97;5069286;28;20056;-76
2022/05/17 06:30:16;;;;;;;9.77;5.63;;;;;;;23.18;53.29;100161.44;5053368;28;20037;-77
2022/05/17 06:32:45;;;;;;;11.82;5.40;;;;;;;22.97;53.80;100162.84;5053670;28;20090;-76
2022/05/17 06:35:14;;;;;;;11.07;5.43;;;;;;;23.21;53.07;100164.63;5053218;28;20402;-75
2022/05/17 06:37:43;;;;;;;9.63;5.40;;;;;;;23.26;52.19;100173.13;5052489;28;20057;-82
2022/05/17 06:40:13;;;;;;;9.85;5.63;;;;;;;23.92;51.07;100170.91;5053323;28;20056;-81
2022/05/17 06:42:41;;;;;;;11.23;5.28;;;;;;;24.79;48.54;100168.69;5052184;28;20553;-86
2022/05/17 06:45:11;;;;;;;14.93;5.90;;;;;;;24.15;49.50;100168.22;5056782;28;20094;-85
2022/05/17 06:47:40;;;;;;;9.10;6.15;;;;;;;24.79;48.35;100163.22;5052493;28;20136;-82
2022/05/17 06:50:10;;;;;;;10.30;5.97;;;;;;;25.26;47.16;100171.09;5051930;28;20115;-83
2022/05/17 06:52:39;;;;;;;10.50;6.35;;;;;;;24.87;48.38;100171.31;5053441;28;20068;-78
2022/05/17 06:55:09;;;;;;;12.68;5.85;;;;;;;24.06;50.10;100182.94;5052967;28;20045;-79
2022/05/17 06:57:40;;;;;;;7.63;5.90;;;;;;;23.87;51.25;100176.06;5053308;28;20462;-80
2022/05/17 07:00:11;;;;;;;10.18;6.07;;;;;;;23.63;52.26;100171.59;5052867;28;20053;-82
2022/05/17 07:02:40;;;;;;;11.02;6.05;;;;;;;23.66;51.74;100171.28;5053449;28;20063;-83
2022/05/17 07:05:10;;;;;;;8.77;5.68;;;;;;;23.51;52.22;100167.56;5051760;28;20055;-84
2022/05/17 07:07:40;;;;;;;10.55;6.20;;;;;;;23.22;51.93;100173.63;5051638;28;20141;-84
2022/05/17 07:13:08;;;;;;;18.52;5.97;;;;;;;22.91;54.16;100173.56;5053098;28;20077;-83
2022/05/17 07:15:37;;;;;;;12.75;5.85;;;;;;;22.95;54.07;100174.91;5051791;28;20089;-81
2022/05/17 07:18:06;;;;;;;11.75;6.03;;;;;;;22.94;54.77;100175.94;5069729;28;20064;-85
2022/05/17 07:20:35;;;;;;;10.50;6.65;;;;;;;22.88;54.98;100165.78;5052094;28;20155;-80
2022/05/17 07:23:05;;;;;;;10.65;6.55;;;;;;;22.70;56.10;100164.06;5052469;28;20099;-78
2022/05/17 07:25:36;;;;;;;10.23;6.30;;;;;;;22.85;56.00;100167.78;5052527;28;20048;-79
2022/05/17 07:28:05;;;;;;;11.43;6.13;;;;;;;22.97;55.74;100175.56;5052880;28;20041;-81
2022/05/17 07:30:36;;;;;;;10.70;5.78;;;;;;;23.14;55.01;100174.50;5060250;28;20047;-76
2022/05/17 07:33:04;;;;;;;9.60;5.80;;;;;;;23.18;54.74;100173.16;5055443;28;20135;-77
2022/05/17 07:35:33;;;;;;;9.65;6.25;;;;;;;23.25;54.34;100170.56;5055327;28;20405;-78
2022/05/17 07:38:02;;;;;;;10.00;5.80;;;;;;;23.31;53.91;100173.44;5056880;28;20048;-77
2022/05/17 07:40:32;;;;;;;11.60;5.57;;;;;;;23.46;54.02;100175.44;5055358;28;20049;-78
2022/05/17 07:43:03;;;;;;;10.45;5.70;;;;;;;23.18;54.22;100167.72;5056972;28;20037;-78
2022/05/17 07:45:32;;;;;;;10.48;6.03;;;;;;;23.28;54.59;100179.25;5055413;28;20048;-78
2022/05/17 07:48:02;;;;;;;13.35;6.05;;;;;;;23.24;54.80;100182.47;5056226;28;20049;-77
2022/05/17 07:50:31;;;;;;;12.30;6.00;;;;;;;23.18;55.12;100188.63;5056601;28;20171;-77
2022/05/17 07:53:06;;;;;;;10.70;5.43;;;;;;;22.92;55.15;100188.88;5056615;28;20056;-76
2022/05/17 07:55:37;;;;;;;11.65;5.40;;;;;;;22.51;55.77;100184.31;5055197;28;20413;-77
2022/05/17 07:58:06;;;;;;;9.60;6.03;;;;;;;22.34;56.95;100185.31;5056521;28;20037;-77
2022/05/17 08:00:36;;;;;;;8.50;5.78;;;;;;;22.41;57.26;100186.34;5056177;28;20425;-77
2022/05/17 08:03:05;;;;;;;9.13;5.75;;;;;;;21.94;59.06;100183.38;5056124;28;20171;-78
2022/05/17 08:05:34;;;;;;;9.20;6.03;;;;;;;21.91;59.72;100183.75;5056127;28;20052;-77
2022/05/17 08:08:03;;;;;;;9.70;5.53;;;;;;;21.82;61.18;100190.16;5055204;28;20071;-76
2022/05/17 08:10:31;;;;;;;10.13;6.30;;;;;;;21.63;62.29;100185.88;5056121;28;20128;-77
2022/05/17 08:13:01;;;;;;;15.00;6.93;;;;;;;21.60;68.13;100181.59;5056250;28;20045;-78
2022/05/17 08:15:30;;;;;;;10.65;6.70;;;;;;;21.46;72.56;100189.53;5055942;28;20051;-78
2022/05/17 08:18:01;;;;;;;12.40;7.18;;;;;;;21.24;75.80;100185.53;5056373;28;20444;-78
2022/05/17 08:20:30;;;;;;;12.73;7.18;;;;;;;20.90;77.07;100199.91;5054651;28;20065;-79
2022/05/17 08:22:59;;;;;;;13.88;7.60;;;;;;;20.75;84.46;100206.91;5055969;28;20049;-79
2022/05/17 08:28:18;;;;;;;21.90;9.88;;;;;;;20.27;100.00;100205.50;5055508;28;20452;-78
2022/05/17 08:30:47;;;;;;;16.88;9.48;;;;;;;20.05;100.00;100197.81;5054973;28;20103;-78
2022/05/17 08:33:16;;;;;;;26.90;10.40;;;;;;;19.93;100.00;100205.31;5054551;28;20045;-78
2022/05/17 08:35:49;;;;;;;21.40;10.13;;;;;;;19.90;100.00;100211.06;5071160;28;20049;-78
2022/05/17 08:38:21;;;;;;;16.13;10.05;;;;;;;19.91;100.00;100212.75;5054717;28;20048;-78
2022/05/17 08:41:06;;;;;;;13.02;9.25;;;;;;;19.89;100.00;100218.31;5053127;28;20056;-78
2022/05/17 08:43:49;;;;;;;14.00;9.60;;;;;;;19.99;100.00;100219.09;5054024;28;20457;-78
2022/05/17 08:46:25;;;;;;;17.45;9.65;;;;;;;20.03;100.00;100227.75;5070567;28;20045;-78
2022/05/17 08:48:56;;;;;;;14.38;9.88;;;;;;;20.16;100.00;100232.78;5055409;28;20044;-78
2022/05/17 08:51:36;;;;;;;18.05;10.30;;;;;;;20.08;100.00;100220.03;5053052;28;20426;-78
2022/05/17 08:54:08;;;;;;;13.07;9.27;;;;;;;20.13;100.00;100227.69;5053536;28;20477;-78
2022/05/17 08:56:41;;;;;;;14.88;9.10;;;;;;;20.18;100.00;100226.22;5053539;28;20049;-77
2022/05/17 08:59:15;;;;;;;12.10;8.43;;;;;;;20.17;100.00;100223.66;5055121;28;20045;-78
2022/05/17 09:01:47;;;;;;;12.77;9.48;;;;;;;20.08;100.00;100230.03;5053750;28;20415;-77
2022/05/17 09:04:34;;;;;;;14.77;9.57;;;;;;;20.08;100.00;100239.00;5070703;28;20045;-78
2022/05/17 09:07:15;;;;;;;13.85;9.10;;;;;;;20.19;100.00;100233.34;5054916;28;20044;-77
2022/05/17 09:09:57;;;;;;;14.05;9.65;;;;;;;20.36;100.00;100238.91;5054740;28;20124;-76
2022/05/17 09:12:38;;;;;;;14.50;9.13;;;;;;;20.24;100.00;100238.28;5053416;28;20055;-78
2022/05/17 09:15:10;;;;;;;16.38;9.00;;;;;;;20.13;100.00;100235.81;5053925;28;20068;-77
2022/05/17 09:17:38;;;;;;;11.25;8.70;;;;;;;20.12;100.00;100244.94;5053363;28;20072;-78
2022/05/17 09:20:09;;;;;;;12.30;8.93;;;;;;;20.33;100.00;100245.47;5054938;28;20107;-77
2022/05/17 09:22:38;;;;;;;10.45;8.25;;;;;;;20.50;100.00;100247.38;5055087;28;20037;-77
2022/05/17 09:25:16;;;;;;;13.10;9.75;;;;;;;20.63;100.00;100240.69;5053557;28;20124;-78
2022/05/17 09:27:49;;;;;;;13.13;8.68;;;;;;;20.62;100.00;100239.00;5053414;28;20053;-77
2022/05/17 09:30:36;;;;;;;12.48;9.20;;;;;;;20.73;100.00;100238.72;5053458;28;20143;-77
2022/05/17 09:33:07;;;;;;;12.70;8.98;;;;;;;20.67;100.00;100237.53;5054580;28;20048;-76
2022/05/17 09:35:42;;;;;;;10.63;8.00;;;;;;;20.55;100.00;100238.75;5054639;28;20044;-77
2022/05/17 09:38:11;;;;;;;11.98;8.48;;;;;;;20.56;100.00;100237.78;5054671;28;20402;-76
2022/05/17 09:40:41;;;;;;;15.70;8.55;;;;;;;20.44;100.00;100241.72;5052660;28;20076;-77
2022/05/17 09:43:12;;;;;;;11.70;8.65;;;;;;;20.47;100.00;100242.28;5054611;28;20067;-77
2022/05/17 09:45:50;;;;;;;12.57;8.70;;;;;;;20.37;100.00;100243.34;5053108;28;20072;-75
2022/05/17 09:48:32;;;;;;;14.43;9.50;;;;;;;20.68;100.00;100239.22;5053322;28;20052;-77
2022/05/17 09:53:49;;;;;;;10.88;8.40;;;;;;;20.83;100.00;100245.75;5069237;28;20052;-75
2022/05/17 09:56:27;;;;;;;11.77;8.27;;;;;;;20.85;100.00;100245.63;5052638;28;20041;-76
2022/05/17 09:58:56;;;;;;;10.32;7.68;;;;;;;20.69;100.00;100235.50;5053919;28;20048;-76
2022/05/17 10:01:37;;;;;;;12.82;7.70;;;;;;;20.43;100.00;100224.59;5054088;28;20041;-75
2022/05/17 10:04:10;;;;;;;11.57;7.85;;;;;;;20.26;100.00;100234.41;5054065;28;20044;-76
2022/05/17 10:06:40;;;;;;;11.90;7.40;;;;;;;20.18;100.00;100226.22;5069136;28;20049;-77
2022/05/17 10:09:10;;;;;;;14.35;8.82;;;;;;;20.02;100.00;100226.91;5052385;28;20405;-76
2022/05/17 10:11:46;;;;;;;11.70;8.90;;;;;;;20.02;100.00;100231.47;5053646;28;20077;-77
2022/05/17 10:14:22;;;;;;;16.70;10.00;;;;;;;19.88;100.00;100230.16;5054154;28;20501;-77
2022/05/17 10:16:58;;;;;;;16.25;9.10;;;;;;;19.60;100.00;100228.47;5053947;28;20048;-76
2022/05/17 10:19:38;;;;;;;12.32;8.93;;;;;;;19.45;100.00;100225.38;5052141;28;20045;-79
2022/05/17 10:22:16;;;;;;;13.30;9.55;;;;;;;19.48;100.00;100224.22;5052361;28;20139;-78
2022/05/17 10:24:49;;;;;;;15.48;9.02;;;;;;;19.36;100.00;100229.81;5051825;28;20051;-76
2022/05/17 10:27:23;;;;;;;16.27;9.05;;;;;;;19.24;100.00;100225.63;5053695;28;20048;-77
2022/05/17 10:29:54;;;;;;;14.55;9.13;;;;;;;19.10;100.00;100223.38;5052120;28;20060;-78
2022/05/17 10:32:31;;;;;;;16.40;9.48;;;;;;;19.60;100.00;100215.78;5053062;28;20102;-76
2022/05/17 10:35:16;;;;;;;13.93;8.77;;;;;;;19.63;100.00;100225.47;5053502;28;20471;-78
2022/05/17 10:37:50;;;;;;;12.20;7.78;;;;;;;20.09;100.00;100219.03;5068803;28;20187;-76
2022/05/17 10:40:22;;;;;;;13.13;6.72;;;;;;;20.05;100.00;100219.47;5053235;28;20107;-75
2022/05/17 10:42:51;;;;;;;10.50;6.65;;;;;;;19.87;100.00;100220.31;5051883;28;20465;-75
2022/05/17 10:45:21;;;;;;;12.38;7.10;;;;;;;20.27;100.00;100216.31;5053037;28;20075;-77
2022/05/17 10:48:00;;;;;;;12.85;7.10;;;;;;;20.34;100.00;100217.38;5051576;28;20049;-76
2022/05/17 10:50:35;;;;;;;13.32;6.30;;;;;;;20.17;100.00;100212.81;5051453;28;20085;-78
2022/05/17 10:53:25;;;;;;;11.55;7.20;;;;;;;20.44;100.00;100214.63;5053147;28;20497;-76
2022/05/17 10:56:03;;;;;;;11.70;6.78;;;;;;;20.79;100.00;100209.16;5051608;28;20168;-75
2022/05/17 10:58:41;;;;;;;14.07;6.57;;;;;;;20.89;100.00;100211.75;5052778;28;20454;-76
2022/05/17 11:01:16;;;;;;;9.45;5.72;;;;;;;20.96;100.00;100214.69;5052806;28;20049;-75
2022/05/17 11:04:09;;;;;;;12.38;6.45;;;;;;;20.85;100.00;100211.22;5051022;28;20481;-75
2022/05/17 11:06:46;;;;;;;11.13;6.20;;;;;;;20.95;100.00;100213.84;5052954;28;20051;-75
2022/05/17 11:09:24;;;;;;;10.10;5.45;;;;;;;20.81;100.00;100217.13;5068479;28;20056;-75
2022/05/17 11:12:05;;;;;;;11.63;5.53;;;;;;;20.74;100.00;100213.31;5068274;28;20095;-76
2022/05/17 11:14:41;;;;;;;10.73;5.30;;;;;;;20.81;100.00;100217.13;5052897;28;20041;-77
2022/05/17 11:17:19;;;;;;;10.55;6.07;;;;;;;20.86;100.00;100209.38;5052897;28;20049;-76
2022/05/17 11:19:54;;;;;;;11.50;6.50;;;;;;;21.04;100.00;100206.59;5052379;28;20045;-76
2022/05/17 11:22:29;;;;;;;8.70;6.10;;;;;;;21.26;100.00;100206.06;5051562;28;20509;-76
2022/05/17 11:25:24;;;;;;;10.15;6.72;;;;;;;21.49;100.00;100206.31;5068351;28;20136;-76
2022/05/17 11:28:18;;;;;;;12.73;6.93;;;;;;;21.27;100.00;100204.22;5051426;28;20049;-76
2022/05/17 11:30:49;;;;;;;;;;;;;;;21.34;100.00;100200.69;5051595;28;20086;-76
2022/05/17 11:33:40;;;;;;;13.45;7.70;;;;;;;21.19;100.00;100193.28;5051668;28;19921;-76
2022/05/17 11:36:12;;;;;;;11.18;7.60;;;;;;;21.22;100.00;100190.22;5049012;28;20131;-76
2022/05/17 11:38:50;;;;;;;12.77;7.90;;;;;;;21.06;100.00;100183.72;5051168;28;20491;-76
2022/05/17 11:41:22;;;;;;;13.27;7.13;;;;;;;21.17;100.00;100185.31;5052670;28;20167;-76
2022/05/17 11:44:12;;;;;;;13.35;7.57;;;;;;;20.98;100.00;100182.84;5051197;28;20106;-76
2022/05/17 11:46:58;;;;;;;11.45;6.90;;;;;;;21.14;100.00;100175.63;5052302;28;20427;-76